createdAt,value
2023-04-03T00:01:14.624Z,98347.84
2023-04-03T00:03:42.685Z,98348.97
2023-04-03T00:06:12.136Z,98351.63
2023-04-03T00:08:41.194Z,98349.22
2023-04-03T00:11:10.432Z,98345.72
2023-04-03T00:13:39.070Z,98348.50
2023-04-03T00:16:08.051Z,98350.34
2023-04-03T00:18:36.617Z,98350.47
2023-04-03T00:21:05.099Z,98357.47
2023-04-03T00:23:34.807Z,98348.63
2023-04-03T00:26:02.544Z,98359.13
2023-04-03T00:28:30.108Z,98352.88
2023-04-03T00:30:57.860Z,98349.34
2023-04-03T00:33:25.508Z,98350.59
2023-04-03T00:35:53.364Z,98351.56
2023-04-03T00:38:21.329Z,98353.41
2023-04-03T00:40:50.639Z,98345.69
2023-04-03T00:43:25.193Z,98348.59
2023-04-03T00:45:56.448Z,98349.72
2023-04-03T00:48:33.775Z,98348.88
2023-04-03T00:51:03.341Z,98348.19
2023-04-03T00:53:42.635Z,98343.69
2023-04-03T00:56:16.045Z,98348.00
2023-04-03T00:59:00.698Z,98344.66
2023-04-03T01:01:30.703Z,98342.88
2023-04-03T01:04:01.138Z,98344.94
2023-04-03T01:06:34.839Z,98341.72
2023-04-03T01:09:09.677Z,98339.88
2023-04-03T01:11:37.153Z,98339.06
2023-04-03T01:14:06.885Z,98341.72
2023-04-03T01:16:34.447Z,98338.34
2023-04-03T01:19:04.158Z,98338.75
2023-04-03T01:22:04.579Z,98341.78
2023-04-03T01:24:39.524Z,98341.78
2023-04-03T01:27:11.352Z,98339.25
2023-04-03T01:29:39.525Z,98342.44
2023-04-03T01:32:07.144Z,98346.09
2023-04-03T01:34:34.693Z,98346.22
2023-04-03T01:37:02.559Z,98344.66
2023-04-03T01:39:30.258Z,98346.47
2023-04-03T01:42:00.114Z,98343.81
2023-04-03T01:44:32.036Z,98349.00
2023-04-03T01:46:59.545Z,98347.88
2023-04-03T01:49:29.316Z,98350.69
2023-04-03T01:51:57.434Z,98342.13
2023-04-03T01:54:25.043Z,98354.53
2023-04-03T01:56:53.084Z,98352.03
2023-04-03T01:59:21.830Z,98348.69
2023-04-03T02:01:49.364Z,98353.00
2023-04-03T02:04:17.041Z,98356.66
2023-04-03T02:06:44.627Z,98354.13
2023-04-03T02:09:12.174Z,98351.59
2023-04-03T02:11:39.760Z,98348.69
2023-04-03T02:14:07.749Z,98353.13
2023-04-03T02:16:35.362Z,98355.78
2023-04-03T02:19:02.955Z,98353.13
2023-04-03T02:21:31.621Z,98352.41
2023-04-03T02:23:59.206Z,98358.59
2023-04-03T02:26:27.531Z,98352.28
2023-04-03T02:28:55.100Z,98355.66
2023-04-03T02:31:24.933Z,98355.78
2023-04-03T02:33:53.114Z,98356.50
2023-04-03T02:36:20.932Z,98363.50
2023-04-03T02:38:54.568Z,98366.84
2023-04-03T02:41:22.483Z,98359.72
2023-04-03T02:43:52.140Z,98355.66
2023-04-03T02:46:19.680Z,98351.47
2023-04-03T02:48:47.279Z,98349.63
2023-04-03T02:51:14.990Z,98355.06
2023-04-03T02:53:42.531Z,98351.47
2023-04-03T02:56:17.960Z,98352.41
2023-04-03T02:58:45.922Z,98348.09
2023-04-03T03:01:13.567Z,98350.13
2023-04-03T03:03:41.866Z,98352.06
2023-04-03T03:06:14.396Z,98346.78
2023-04-03T03:08:42.643Z,98345.94
2023-04-03T03:11:10.911Z,98337.13
2023-04-03T03:13:39.048Z,98341.47
2023-04-03T03:16:07.080Z,98343.41
2023-04-03T03:18:35.232Z,98336.53
2023-04-03T03:21:05.097Z,98342.00
2023-04-03T03:23:34.090Z,98333.16
2023-04-03T03:26:08.517Z,98341.84
2023-04-03T03:28:38.281Z,98335.81
2023-04-03T03:31:08.407Z,98334.03
2023-04-03T03:33:38.393Z,98333.16
2023-04-03T03:36:06.445Z,98337.41
2023-04-03T03:38:34.094Z,98329.56
2023-04-03T03:41:02.944Z,98334.75
2023-04-03T03:43:32.434Z,98332.91
2023-04-03T03:45:59.949Z,98332.78
2023-04-03T03:48:28.656Z,98331.22
2023-04-03T03:50:57.208Z,98338.34
2023-04-03T03:53:29.065Z,98335.56
2023-04-03T03:56:01.022Z,98340.03
2023-04-03T03:58:30.970Z,98339.19
2023-04-03T04:01:03.048Z,98339.34
2023-04-03T04:03:31.344Z,98344.38
2023-04-03T04:05:59.330Z,98337.13
2023-04-03T04:08:27.059Z,98339.94
2023-04-03T04:10:54.620Z,98344.13
2023-04-03T04:13:22.200Z,98338.69
2023-04-03T04:15:50.486Z,98335.75
2023-04-03T04:18:18.916Z,98338.31
2023-04-03T04:20:48.761Z,98336.88
2023-04-03T04:23:19.774Z,98334.09
2023-04-03T04:25:49.855Z,98343.00
2023-04-03T04:28:18.613Z,98342.16
2023-04-03T04:30:48.096Z,98366.06
2023-04-03T04:33:17.435Z,98349.31
2023-04-03T04:35:49.420Z,98343.28
2023-04-03T04:38:19.126Z,98348.44
2023-04-03T04:40:48.383Z,98352.06
2023-04-03T04:43:16.947Z,98346.78
2023-04-03T04:45:46.521Z,98341.47
2023-04-03T04:48:14.233Z,98345.94
2023-04-03T04:50:41.745Z,98343.66
2023-04-03T04:53:09.522Z,98351.03
2023-04-03T04:55:37.247Z,98346.72
2023-04-03T04:58:05.204Z,98359.97
2023-04-03T05:00:32.812Z,98359.84
2023-04-03T05:03:00.809Z,98356.34
2023-04-03T05:05:28.931Z,98358.88
2023-04-03T05:07:56.650Z,98368.63
2023-04-03T05:10:24.735Z,98374.91
2023-04-03T05:12:52.239Z,98381.44
2023-04-03T05:15:20.886Z,98379.06
2023-04-03T05:17:49.045Z,98379.91
2023-04-03T05:20:16.995Z,98384.13
2023-04-03T05:22:46.633Z,98379.94
2023-04-03T05:25:14.572Z,98377.28
2023-04-03T05:27:45.168Z,98383.31
2023-04-03T05:30:14.082Z,98378.59
2023-04-03T05:32:43.341Z,98384.72
2023-04-03T05:35:17.192Z,98378.59
2023-04-03T05:37:46.984Z,98385.72
2023-04-03T05:40:18.517Z,98388.59
2023-04-03T05:42:48.198Z,98381.97
2023-04-03T05:45:17.422Z,98392.56
2023-04-03T05:47:45.671Z,98387.03
2023-04-03T05:50:13.321Z,98389.78
2023-04-03T05:52:45.506Z,98388.25
2023-04-03T05:55:14.035Z,98393.19
2023-04-03T05:57:41.662Z,98398.63
2023-04-03T06:00:15.324Z,98397.28
2023-04-03T06:02:44.925Z,98401.34
2023-04-03T06:05:18.933Z,98400.53
2023-04-03T06:07:47.496Z,98402.22
2023-04-03T06:10:15.823Z,98403.88
2023-04-03T06:12:43.547Z,98405.59
2023-04-03T06:15:11.237Z,98404.72
2023-04-03T06:17:39.029Z,98408.84
2023-04-03T06:20:07.427Z,98407.00
2023-04-03T06:22:36.306Z,98413.88
2023-04-03T06:25:04.511Z,98413.03
2023-04-03T06:27:32.028Z,98417.34
2023-04-03T06:29:59.574Z,98416.28
2023-04-03T06:32:27.382Z,98411.47
2023-04-03T06:34:54.940Z,98416.78
2023-04-03T06:37:23.937Z,98414.69
2023-04-03T06:39:51.468Z,98416.78
2023-04-03T06:42:19.082Z,98416.31
2023-04-03T06:44:54.351Z,98412.84
2023-04-03T06:47:21.874Z,98418.50
2023-04-03T06:49:49.585Z,98418.13
2023-04-03T06:52:17.316Z,98424.88
2023-04-03T06:54:44.971Z,98424.47
2023-04-03T06:57:12.480Z,98422.66
2023-04-03T06:59:41.069Z,98430.75
2023-04-03T07:02:13.462Z,98439.88
2023-04-03T07:04:41.971Z,98432.88
2023-04-03T07:07:09.580Z,98433.19
2023-04-03T07:09:37.078Z,98442.34
2023-04-03T07:12:04.685Z,98447.13
2023-04-03T07:14:32.163Z,98441.16
2023-04-03T07:16:59.616Z,98445.38
2023-04-03T07:19:28.890Z,98450.75
2023-04-03T07:21:56.576Z,98451.91
2023-04-03T07:24:24.419Z,98453.06
2023-04-03T07:26:53.717Z,98448.31
2023-04-03T07:29:22.402Z,98452.41
2023-04-03T07:31:50.298Z,98457.31
2023-04-03T07:34:17.869Z,98452.97
2023-04-03T07:36:45.425Z,98459.72
2023-04-03T07:39:13.312Z,98458.75
2023-04-03T07:41:40.955Z,98465.88
2023-04-03T07:44:10.688Z,98460.09
2023-04-03T07:46:39.256Z,98463.59
2023-04-03T07:49:06.798Z,98466.13
2023-04-03T07:51:34.394Z,98468.66
2023-04-03T07:54:01.984Z,98467.69
2023-04-03T07:56:29.870Z,98475.50
2023-04-03T07:58:57.371Z,98475.38
2023-04-03T08:01:24.916Z,98479.81
2023-04-03T08:03:52.542Z,98476.56
2023-04-03T08:06:29.408Z,98476.97
2023-04-03T08:09:00.857Z,98474.09
2023-04-03T08:11:28.455Z,98486.69
2023-04-03T08:13:57.032Z,98476.13
2023-04-03T08:16:28.780Z,98484.00
2023-04-03T08:18:56.941Z,98489.97
2023-04-03T08:21:24.462Z,98481.72
2023-04-03T08:23:52.097Z,98477.22
2023-04-03T08:26:22.539Z,98483.13
2023-04-03T08:28:50.497Z,98480.06
2023-04-03T08:31:20.826Z,98483.88
2023-04-03T08:33:48.740Z,98479.41
2023-04-03T08:36:27.554Z,98476.94
2023-04-03T08:38:56.586Z,98472.19
2023-04-03T08:41:35.996Z,98482.44
2023-04-03T08:44:46.859Z,98481.59
2023-04-03T08:48:06.637Z,98480.63
2023-04-03T08:51:07.612Z,98485.03
2023-04-03T08:53:45.540Z,98483.53
2023-04-03T08:56:16.387Z,98484.28
2023-04-03T08:59:08.102Z,98478.97
2023-04-03T09:01:39.508Z,98487.84
2023-04-03T09:04:15.028Z,98487.56
2023-04-03T09:06:52.751Z,98487.56
2023-04-03T09:09:42.738Z,98489.84
2023-04-03T09:12:30.895Z,98487.75
2023-04-03T09:15:31.198Z,98491.38
2023-04-03T09:18:12.601Z,98489.66
2023-04-03T09:21:25.925Z,98491.09
2023-04-03T09:23:58.862Z,98490.25
2023-04-03T09:26:37.606Z,98483.84
2023-04-03T09:29:08.654Z,98477.53
2023-04-03T09:31:43.474Z,98478.38
2023-04-03T09:34:42.852Z,98484.84
2023-04-03T09:37:10.360Z,98483.41
2023-04-03T09:39:57.184Z,98481.75
2023-04-03T09:42:26.422Z,98481.03
2023-04-03T09:45:04.128Z,98481.44
2023-04-03T09:47:34.835Z,98478.34
2023-04-03T09:50:14.762Z,98478.22
2023-04-03T09:52:44.838Z,98482.00
2023-04-03T09:55:28.309Z,98477.53
2023-04-03T09:58:05.352Z,98477.97
2023-04-03T10:00:40.582Z,98476.47
2023-04-03T10:03:36.700Z,98471.84
2023-04-03T10:06:08.391Z,98479.41
2023-04-03T10:08:36.376Z,98468.63
2023-04-03T10:11:17.720Z,98472.94
2023-04-03T10:13:57.544Z,98471.53
2023-04-03T10:16:38.281Z,98476.84
2023-04-03T10:19:24.928Z,98470.13
2023-04-03T10:22:15.374Z,98462.28
2023-04-03T10:24:54.850Z,98466.63
2023-04-03T10:28:00.753Z,98468.47
2023-04-03T10:30:53.721Z,98460.75
2023-04-03T10:33:35.697Z,98465.81
2023-04-03T10:36:50.151Z,98468.75
2023-04-03T10:40:02.229Z,98460.91
2023-04-03T10:42:55.093Z,98466.09
2023-04-03T10:45:32.422Z,98469.84
2023-04-03T10:48:06.781Z,98466.50
2023-04-03T10:51:12.939Z,98462.25
2023-04-03T10:54:07.302Z,98459.63
2023-04-03T10:56:55.315Z,98464.13
2023-04-03T10:59:37.641Z,98456.84
2023-04-03T11:02:28.590Z,98463.16
2023-04-03T11:05:16.442Z,98465.81
2023-04-03T11:07:50.561Z,98465.25
2023-04-03T11:10:45.907Z,98460.50
2023-04-03T11:13:24.034Z,98459.94
2023-04-03T11:15:54.109Z,98465.13
2023-04-03T11:18:46.072Z,98455.00
2023-04-03T11:21:35.619Z,98458.94
2023-04-03T11:24:14.835Z,98454.47
2023-04-03T11:26:43.956Z,98452.91
2023-04-03T11:29:34.226Z,98451.25
2023-04-03T11:32:36.710Z,98450.94
2023-04-03T11:35:08.213Z,98456.56
2023-04-03T11:37:40.903Z,98453.75
2023-04-03T11:40:18.826Z,98458.38
2023-04-03T11:42:54.038Z,98453.28
2023-04-03T11:45:25.529Z,98454.69
2023-04-03T11:48:10.184Z,98449.81
2023-04-03T11:50:47.115Z,98446.47
2023-04-03T11:53:14.453Z,98445.31
2023-04-03T11:55:46.384Z,98441.97
2023-04-03T11:58:34.098Z,98442.25
2023-04-03T12:01:04.969Z,98439.56
2023-04-03T12:04:05.761Z,98440.44
2023-04-03T12:07:01.407Z,98435.09
2023-04-03T12:09:56.393Z,98431.16
2023-04-03T12:12:39.891Z,98426.91
2023-04-03T12:15:22.335Z,98426.06
2023-04-03T12:17:50.445Z,98430.09
2023-04-03T12:20:53.753Z,98424.94
2023-04-03T12:23:34.273Z,98417.41
2023-04-03T12:26:20.343Z,98427.59
2023-04-03T12:28:49.495Z,98421.41
2023-04-03T12:31:18.062Z,98415.13
2023-04-03T12:34:16.155Z,98418.84
2023-04-03T12:37:29.265Z,98411.78
2023-04-03T12:40:21.920Z,98408.47
2023-04-03T12:43:45.635Z,98405.38
2023-04-03T12:46:21.904Z,98403.34
2023-04-03T12:48:52.829Z,98406.84
2023-04-03T12:51:40.857Z,98400.34
2023-04-03T12:54:17.364Z,98407.78
2023-04-03T12:56:45.036Z,98407.38
2023-04-03T12:59:27.679Z,98405.75
2023-04-03T13:02:02.762Z,98404.66
2023-04-03T13:04:32.961Z,98409.25
2023-04-03T13:07:00.823Z,98403.50
2023-04-03T13:09:32.066Z,98398.91
2023-04-03T13:12:13.455Z,98396.94
2023-04-03T13:14:41.930Z,98393.25
2023-04-03T13:17:17.151Z,98389.06
2023-04-03T13:19:49.372Z,98389.53
2023-04-03T13:22:33.802Z,98388.84
2023-04-03T13:25:07.194Z,98388.72
2023-04-03T13:27:35.267Z,98384.13
2023-04-03T13:30:05.172Z,98389.91
2023-04-03T13:32:33.677Z,98387.91
2023-04-03T13:35:15.601Z,98382.84
2023-04-03T13:37:57.850Z,98382.16
2023-04-03T13:40:28.087Z,98391.53
2023-04-03T13:43:24.632Z,98389.63
2023-04-03T13:46:13.218Z,98385.88
2023-04-03T13:48:47.828Z,98379.59
2023-04-03T13:51:15.932Z,98387.47
2023-04-03T13:54:00.547Z,98391.78
2023-04-03T13:56:33.858Z,98388.53
2023-04-03T13:59:12.203Z,98386.41
2023-04-03T14:01:47.208Z,98384.44
2023-04-03T14:04:17.949Z,98385.56
2023-04-03T14:06:46.835Z,98382.44
2023-04-03T14:09:15.864Z,98377.66
2023-04-03T14:11:43.963Z,98370.34
2023-04-03T14:14:31.706Z,98374.94
2023-04-03T14:17:03.784Z,98375.94
2023-04-03T14:19:36.659Z,98369.66
2023-04-03T14:22:25.888Z,98374.38
2023-04-03T14:24:54.166Z,98368.16
2023-04-03T14:27:28.131Z,98369.88
2023-04-03T14:29:58.178Z,98368.19
2023-04-03T14:32:28.229Z,98359.81
2023-04-03T14:34:56.247Z,98360.97
2023-04-03T14:37:28.753Z,98360.03
2023-04-03T14:39:59.120Z,98364.50
2023-04-03T14:42:34.347Z,98365.81
2023-04-03T14:45:07.003Z,98366.31
2023-04-03T14:47:46.376Z,98364.59
2023-04-03T14:50:21.980Z,98360.75
2023-04-03T14:52:54.533Z,98363.72
2023-04-03T14:55:25.791Z,98366.44
2023-04-03T14:57:54.437Z,98355.84
2023-04-03T15:00:23.358Z,98354.47
2023-04-03T15:02:51.181Z,98352.41
2023-04-03T15:05:20.404Z,98352.19
2023-04-03T15:07:59.025Z,98351.44
2023-04-03T15:10:30.227Z,98352.91
2023-04-03T15:12:58.310Z,98349.69
2023-04-03T15:15:30.355Z,98341.09
2023-04-03T15:17:58.905Z,98352.19
2023-04-03T15:20:31.292Z,98355.25
2023-04-03T15:23:01.605Z,98350.34
2023-04-03T15:25:29.861Z,98353.38
2023-04-03T15:27:58.283Z,98358.47
2023-04-03T15:30:26.056Z,98349.94
2023-04-03T15:32:54.145Z,98355.91
2023-04-03T15:35:22.001Z,98350.13
2023-04-03T15:37:49.739Z,98346.19
2023-04-03T15:40:17.515Z,98348.38
2023-04-03T15:42:45.046Z,98345.03
2023-04-03T15:45:12.596Z,98354.28
2023-04-03T15:47:40.287Z,98347.94
2023-04-03T15:50:08.913Z,98345.59
2023-04-03T15:52:36.895Z,98349.63
2023-04-03T15:55:05.460Z,98349.47
2023-04-03T16:00:08.874Z,98351.31
2023-04-03T16:02:36.582Z,98345.97
2023-04-03T16:05:04.487Z,98350.59
2023-04-03T16:07:32.052Z,98353.56
2023-04-03T16:09:59.585Z,98348.53
2023-04-03T16:12:27.121Z,98342.91
2023-04-03T16:14:54.680Z,98344.28
2023-04-03T16:17:22.371Z,98344.97
2023-04-03T16:19:50.176Z,98346.19
2023-04-03T16:22:17.723Z,98342.50
2023-04-03T16:24:45.257Z,98344.28
2023-04-03T16:27:12.756Z,98344.69
2023-04-03T16:29:40.407Z,98348.50
2023-04-03T16:32:08.054Z,98348.94
2023-04-03T16:34:36.009Z,98351.25
2023-04-03T16:37:03.714Z,98351.81
2023-04-03T16:39:31.269Z,98348.66
2023-04-03T16:41:58.743Z,98354.41
2023-04-03T16:44:27.071Z,98357.22
2023-04-03T16:46:54.908Z,98345.59
2023-04-03T16:49:22.470Z,98357.91
2023-04-03T16:51:50.429Z,98355.25
2023-04-03T16:54:17.951Z,98359.75
2023-04-03T16:56:45.534Z,98357.53
2023-04-03T16:59:13.162Z,98351.66
2023-04-03T17:01:40.835Z,98356.44
2023-04-03T17:04:08.397Z,98353.00
2023-04-03T17:06:36.479Z,98356.84
2023-04-03T17:09:03.990Z,98367.41
2023-04-03T17:11:32.713Z,98371.63
2023-04-03T17:14:00.540Z,98363.38
2023-04-03T17:16:28.874Z,98359.47
2023-04-03T17:18:57.180Z,98359.38
2023-04-03T17:21:24.924Z,98359.81
2023-04-03T17:23:58.646Z,98359.41
2023-04-03T17:26:27.135Z,98355.34
2023-04-03T17:28:54.623Z,98356.47
2023-04-03T17:31:22.142Z,98351.72
2023-04-03T17:33:49.810Z,98357.94
2023-04-03T17:36:17.281Z,98362.97
2023-04-03T17:38:44.865Z,98354.31
2023-04-03T17:41:12.431Z,98362.00
2023-04-03T17:43:40.015Z,98360.56
2023-04-03T17:46:10.413Z,98358.47
2023-04-03T17:48:40.852Z,98357.66
2023-04-03T17:51:14.323Z,98361.28
2023-04-03T17:53:42.552Z,98362.84
2023-04-03T17:56:17.422Z,98362.28
2023-04-03T17:58:45.616Z,98366.47
2023-04-03T18:01:17.319Z,98360.75
2023-04-03T18:03:45.928Z,98364.63
2023-04-03T18:06:17.730Z,98361.56
2023-04-03T18:09:01.301Z,98362.69
2023-04-03T18:11:30.108Z,98356.53
2023-04-03T18:14:02.404Z,98359.75
2023-04-03T18:16:30.982Z,98362.13
2023-04-03T18:19:17.638Z,98367.13
2023-04-03T18:21:47.683Z,98365.59
2023-04-03T18:24:18.910Z,98370.63
2023-04-03T18:26:55.757Z,98366.44
2023-04-03T18:29:23.643Z,98374.13
2023-04-03T18:31:55.692Z,98374.66
2023-04-03T18:34:23.427Z,98377.84
2023-04-03T18:36:52.243Z,98383.00
2023-04-03T18:39:19.807Z,98372.66
2023-04-03T18:41:47.868Z,98379.19
2023-04-03T18:44:20.961Z,98387.84
2023-04-03T18:46:48.561Z,98384.66
2023-04-03T18:49:18.014Z,98381.78
2023-04-03T18:51:46.376Z,98384.84
2023-04-03T18:54:13.892Z,98390.88
2023-04-03T18:56:41.508Z,98390.75
2023-04-03T18:59:09.051Z,98390.88
2023-04-03T19:01:37.340Z,98394.91
2023-04-03T19:04:05.093Z,98401.56
2023-04-03T19:06:37.082Z,98397.38
2023-04-03T19:09:06.701Z,98397.63
2023-04-03T19:11:35.379Z,98390.78
2023-04-03T19:14:15.197Z,98392.59
2023-04-03T19:16:44.646Z,98391.91
2023-04-03T19:19:12.623Z,98399.41
2023-04-03T19:21:41.501Z,98397.41
2023-04-03T19:24:11.757Z,98396.94
2023-04-03T19:26:41.540Z,98396.50
2023-04-03T19:29:10.242Z,98399.41
2023-04-03T19:31:38.777Z,98391.25
2023-04-03T19:34:07.550Z,98397.31
2023-04-03T19:36:36.145Z,98395.28
2023-04-03T19:39:05.405Z,98387.34
2023-04-03T19:41:36.520Z,98393.63
2023-04-03T19:44:07.061Z,98391.94
2023-04-03T19:46:36.193Z,98391.47
2023-04-03T19:49:04.579Z,98386.44
2023-04-03T19:51:32.065Z,98390.91
2023-04-03T19:53:59.626Z,98395.34
2023-04-03T19:56:27.359Z,98391.13
2023-04-03T19:58:54.984Z,98387.59
2023-04-03T20:01:27.669Z,98387.34
2023-04-03T20:03:55.336Z,98393.75
2023-04-03T20:06:23.554Z,98389.44
2023-04-03T20:08:51.169Z,98393.88
2023-04-03T20:11:18.760Z,98398.34
2023-04-03T20:13:50.331Z,98400.75
2023-04-03T20:16:19.281Z,98396.28
2023-04-03T20:18:47.583Z,98393.63
2023-04-03T20:21:15.443Z,98394.75
2023-04-03T20:23:42.930Z,98396.09
2023-04-03T20:26:18.768Z,98393.78
2023-04-03T20:28:46.291Z,98394.88
2023-04-03T20:31:14.087Z,98394.16
2023-04-03T20:33:41.873Z,98396.94
2023-04-03T20:36:09.599Z,98396.94
2023-04-03T20:38:37.082Z,98402.63
2023-04-03T20:41:04.859Z,98401.91
2023-04-03T20:43:32.428Z,98396.72
2023-04-03T20:46:03.178Z,98409.28
2023-04-03T20:48:32.239Z,98405.31
2023-04-03T20:51:12.457Z,98403.16
2023-04-03T20:53:41.113Z,98415.81
2023-04-03T20:56:09.003Z,98413.38
2023-04-03T20:58:39.118Z,98405.59
2023-04-03T21:01:22.790Z,98397.88
2023-04-03T21:03:54.911Z,98403.16
2023-04-03T21:07:18.911Z,98405.59
2023-04-03T21:10:42.946Z,98403.06
2023-04-03T21:14:07.443Z,98402.22
2023-04-03T21:16:37.249Z,98405.72
2023-04-03T21:19:15.648Z,98403.28
2023-04-03T21:21:46.027Z,98396.44
2023-04-03T21:24:17.048Z,98397.66
2023-04-03T21:26:45.266Z,98405.94
2023-04-03T21:29:13.759Z,98391.03
2023-04-03T21:31:52.084Z,98394.78
2023-04-03T21:34:21.748Z,98399.69
2023-04-03T21:36:49.942Z,98397.53
2023-04-03T21:39:17.542Z,98396.31
2023-04-03T21:41:45.433Z,98391.41
2023-04-03T21:44:13.018Z,98386.69
2023-04-03T21:46:40.551Z,98396.66
2023-04-03T21:49:08.034Z,98391.63
2023-04-03T21:51:36.750Z,98395.72
2023-04-03T21:54:04.373Z,98388.09
2023-04-03T21:56:31.964Z,98392.56
2023-04-03T21:59:02.492Z,98395.22
2023-04-03T22:01:30.275Z,98400.50
2023-04-03T22:03:59.044Z,98400.38
2023-04-03T22:06:26.589Z,98392.81
2023-04-03T22:08:54.232Z,98402.06
2023-04-03T22:11:24.524Z,98401.34
2023-04-03T22:13:54.507Z,98398.31
2023-04-03T22:16:23.281Z,98401.06
2023-04-03T22:18:56.080Z,98402.75
2023-04-03T22:21:23.558Z,98408.03
2023-04-03T22:23:52.495Z,98410.81
2023-04-03T22:26:21.450Z,98421.38
2023-04-03T22:28:49.059Z,98408.53
2023-04-03T22:31:17.060Z,98404.16
2023-04-03T22:33:46.106Z,98408.84
2023-04-03T22:36:14.344Z,98411.50
2023-04-03T22:38:46.692Z,98407.19
2023-04-03T22:41:14.213Z,98403.81
2023-04-03T22:43:42.458Z,98409.22
2023-04-03T22:46:10.140Z,98407.50
2023-04-03T22:48:40.872Z,98407.66
2023-04-03T22:51:08.513Z,98405.00
2023-04-03T22:53:36.986Z,98409.41
2023-04-03T22:56:10.885Z,98413.25
2023-04-03T22:58:38.859Z,98404.59
2023-04-03T23:01:07.789Z,98404.72
2023-04-03T23:03:37.227Z,98408.22
2023-04-03T23:06:06.151Z,98402.06
2023-04-03T23:08:34.970Z,98402.19
2023-04-03T23:11:02.746Z,98404.97
2023-04-03T23:13:30.400Z,98406.00
2023-04-03T23:16:01.422Z,98407.09
2023-04-03T23:18:31.219Z,98409.72
2023-04-03T23:21:03.511Z,98404.56
2023-04-03T23:23:31.964Z,98407.19
2023-04-03T23:26:01.558Z,98410.81
2023-04-03T23:28:29.810Z,98409.25
2023-04-03T23:31:02.645Z,98412.22
2023-04-03T23:33:31.765Z,98409.06
2023-04-03T23:36:01.119Z,98412.84
2023-04-03T23:38:29.473Z,98426.53
2023-04-03T23:40:57.049Z,98420.63
2023-04-03T23:43:24.629Z,98423.50
2023-04-03T23:45:52.482Z,98415.91
2023-04-03T23:48:20.096Z,98422.47
2023-04-03T23:50:47.588Z,98421.00
2023-04-03T23:53:15.068Z,98420.28
2023-04-03T23:55:42.759Z,98416.16
2023-04-03T23:58:13.176Z,98420.00
